createdAt,value
2022-09-28T00:03:28.250Z,15.89
2022-09-28T00:08:31.714Z,16.66
2022-09-28T00:13:35.363Z,19.05
2022-09-28T00:18:38.383Z,19.16
2022-09-28T00:24:01.792Z,17.77
2022-09-28T00:29:04.953Z,16.90
2022-09-28T00:34:08.638Z,16.35
2022-09-28T00:39:13.048Z,15.93
2022-09-28T00:44:27.927Z,15.57
2022-09-28T00:49:42.911Z,16.36
2022-09-28T00:54:49.097Z,18.96
2022-09-28T00:59:55.898Z,18.88
2022-09-28T01:05:04.277Z,17.52
2022-09-28T01:10:08.449Z,16.74
2022-09-28T01:15:12.102Z,16.19
2022-09-28T01:20:41.105Z,15.75
2022-09-28T01:26:02.571Z,15.34
2022-09-28T01:31:22.613Z,16.15
2022-09-28T01:36:30.785Z,18.71
2022-09-28T01:41:36.936Z,18.73
2022-09-28T01:46:44.844Z,17.36
2022-09-28T01:52:27.993Z,16.55
2022-09-28T01:57:38.553Z,15.89
2022-09-28T02:02:49.347Z,15.42
2022-09-28T02:08:03.508Z,15.05
2022-09-28T02:13:14.233Z,15.84
2022-09-28T02:18:17.515Z,18.38
2022-09-28T02:23:23.944Z,18.78
2022-09-28T02:28:27.203Z,17.36
2022-09-28T02:33:38.910Z,16.51
2022-09-28T02:38:42.143Z,15.93
2022-09-28T02:44:23.660Z,15.47
2022-09-28T02:49:36.600Z,15.05
2022-09-28T02:54:57.872Z,15.76
2022-09-28T03:00:15.518Z,18.30
2022-09-28T03:05:21.256Z,18.20
2022-09-28T03:10:33.691Z,16.91
2022-09-28T03:15:37.073Z,16.11
2022-09-28T03:20:39.958Z,15.55
2022-09-28T03:25:42.801Z,15.08
2022-09-28T03:30:45.668Z,14.70
2022-09-28T03:35:50.926Z,14.36
2022-09-28T03:40:58.519Z,15.04
2022-09-28T03:46:02.919Z,17.55
2022-09-28T03:51:09.930Z,17.12
2022-09-28T03:56:16.129Z,15.94
2022-09-28T04:01:19.236Z,15.28
2022-09-28T04:06:24.225Z,14.79
2022-09-28T04:11:34.939Z,14.39
2022-09-28T04:16:48.306Z,14.04
2022-09-28T04:21:52.433Z,13.76
2022-09-28T04:27:18.347Z,13.54
2022-09-28T04:32:21.653Z,14.51
2022-09-28T04:37:25.111Z,17.14
2022-09-28T04:42:28.161Z,17.32
2022-09-28T04:47:31.052Z,15.96
2022-09-28T04:52:45.911Z,15.12
2022-09-28T04:57:48.809Z,14.51
2022-09-28T05:02:51.718Z,14.04
2022-09-28T05:08:17.603Z,13.67
2022-09-28T05:13:21.223Z,13.41
2022-09-28T05:18:24.923Z,13.21
2022-09-28T05:23:37.829Z,14.09
2022-09-28T05:28:40.821Z,16.76
2022-09-28T05:34:18.771Z,17.18
2022-09-28T05:39:23.057Z,15.81
2022-09-28T05:44:26.134Z,15.06
2022-09-28T05:49:31.865Z,14.55
2022-09-28T05:54:36.291Z,14.15
2022-09-28T05:59:39.397Z,13.85
2022-09-28T06:04:42.485Z,13.65
2022-09-28T06:09:46.221Z,13.50
2022-09-28T06:15:13.333Z,13.39
2022-09-28T06:20:16.352Z,14.33
2022-09-28T06:25:42.143Z,17.25
2022-09-28T06:30:45.269Z,17.59
2022-09-28T06:35:52.641Z,16.30
2022-09-28T06:40:57.700Z,15.58
2022-09-28T06:46:02.019Z,15.08
2022-09-28T06:51:33.677Z,14.73
2022-09-28T06:56:55.667Z,14.47
2022-09-28T07:01:58.616Z,14.29
2022-09-28T07:07:20.052Z,14.18
2022-09-28T07:12:35.293Z,14.12
2022-09-28T07:17:55.252Z,14.09
2022-09-28T07:23:17.407Z,14.04
2022-09-28T07:28:41.600Z,14.01
2022-09-28T07:33:56.571Z,14.02
2022-09-28T07:39:19.494Z,14.05
2022-09-28T07:44:23.049Z,14.09
2022-09-28T07:49:30.875Z,14.15
2022-09-28T07:55:09.094Z,14.21
2022-09-28T08:00:25.389Z,14.23
2022-09-28T08:05:31.371Z,14.30
2022-09-28T08:10:34.834Z,14.38
2022-09-28T08:16:01.380Z,14.44
2022-09-28T08:21:34.551Z,14.56
2022-09-28T08:26:37.385Z,14.63
2022-09-28T08:31:41.242Z,14.61
2022-09-28T08:37:11.249Z,14.56
2022-09-28T08:42:42.145Z,14.57
2022-09-28T08:48:36.364Z,14.65
2022-09-28T08:54:11.948Z,14.83
2022-09-28T08:59:41.857Z,15.03
2022-09-28T09:04:52.119Z,15.17
2022-09-28T09:10:28.757Z,15.25
2022-09-28T09:15:41.429Z,15.31
2022-09-28T09:21:13.907Z,15.24
2022-09-28T09:26:25.997Z,15.14
2022-09-28T09:31:35.495Z,15.09
2022-09-28T09:37:08.909Z,15.09
2022-09-28T09:42:47.367Z,15.11
2022-09-28T09:48:21.837Z,15.20
2022-09-28T09:53:37.663Z,15.28
2022-09-28T09:58:50.284Z,15.36
2022-09-28T10:03:59.137Z,15.47
2022-09-28T10:09:06.848Z,15.61
2022-09-28T10:14:17.543Z,15.72
2022-09-28T10:19:32.956Z,15.84
2022-09-28T10:25:15.936Z,16.02
2022-09-28T10:30:24.744Z,16.22
2022-09-28T10:35:31.754Z,16.47
2022-09-28T10:40:44.802Z,16.66
2022-09-28T10:45:49.782Z,16.76
2022-09-28T10:51:06.441Z,16.82
2022-09-28T10:56:21.933Z,16.89
2022-09-28T11:01:33.903Z,16.94
2022-09-28T11:06:40.297Z,16.95
2022-09-28T11:11:44.197Z,16.97
2022-09-28T11:16:47.410Z,17.03
2022-09-28T11:21:51.733Z,17.09
2022-09-28T11:27:00.139Z,17.19
2022-09-28T11:32:06.756Z,17.29
2022-09-28T11:37:40.338Z,17.39
2022-09-28T11:43:07.416Z,17.40
2022-09-28T11:48:23.993Z,17.46
2022-09-28T11:53:45.657Z,17.67
2022-09-28T11:58:53.356Z,18.03
2022-09-28T12:04:12.223Z,18.32
2022-09-28T12:09:47.158Z,18.45
2022-09-28T12:14:59.946Z,18.43
2022-09-28T12:20:25.145Z,18.37
2022-09-28T12:25:34.359Z,18.34
2022-09-28T12:30:40.789Z,18.37
2022-09-28T12:36:11.452Z,18.46
2022-09-28T12:41:42.510Z,18.54
2022-09-28T12:46:54.054Z,18.61
2022-09-28T12:52:00.439Z,18.73
2022-09-28T12:57:29.304Z,18.90
2022-09-28T13:03:45.915Z,19.16
2022-09-28T13:09:07.382Z,19.60
2022-09-28T13:14:32.128Z,20.07
2022-09-28T13:19:52.927Z,20.58
2022-09-28T13:25:02.249Z,20.95
2022-09-28T13:30:08.528Z,20.93
2022-09-28T13:35:19.568Z,20.75
2022-09-28T13:41:01.413Z,20.61
2022-09-28T13:46:22.381Z,20.35
2022-09-28T13:51:39.429Z,20.06
2022-09-28T13:57:13.427Z,19.87
2022-09-28T14:02:41.511Z,19.69
2022-09-28T14:08:08.918Z,19.50
2022-09-28T14:13:12.407Z,19.34
2022-09-28T14:18:34.353Z,19.20
2022-09-28T14:24:14.852Z,19.08
2022-09-28T14:29:33.970Z,18.98
2022-09-28T14:34:43.743Z,18.89
2022-09-28T14:40:05.958Z,18.80
2022-09-28T14:45:11.712Z,18.71
2022-09-28T14:50:20.550Z,18.64
2022-09-28T14:55:31.595Z,18.60
2022-09-28T15:00:35.122Z,18.54
2022-09-28T15:05:49.506Z,18.46
2022-09-28T15:10:55.673Z,18.54
2022-09-28T15:16:05.682Z,18.53
2022-09-28T15:21:09.055Z,18.40
2022-09-28T15:26:32.386Z,18.29
2022-09-28T15:31:36.694Z,18.19
2022-09-28T15:36:42.198Z,18.06
2022-09-28T15:41:48.804Z,17.94
2022-09-28T15:47:26.523Z,17.83
2022-09-28T15:52:46.629Z,17.73
2022-09-28T15:57:50.585Z,17.67
2022-09-28T16:03:06.894Z,17.61
2022-09-28T16:08:24.831Z,17.57
2022-09-28T16:13:27.765Z,17.55
2022-09-28T16:18:32.510Z,17.52
2022-09-28T16:23:37.006Z,17.51
2022-09-28T16:28:39.839Z,17.50
2022-09-28T16:33:54.220Z,17.48
2022-09-28T16:38:57.416Z,17.49
2022-09-28T16:44:02.478Z,17.47
2022-09-28T16:49:07.178Z,17.45
2022-09-28T16:54:37.927Z,17.44
2022-09-28T16:59:41.137Z,17.44
2022-09-28T17:04:47.583Z,17.44
2022-09-28T17:09:50.901Z,17.44
2022-09-28T17:14:53.850Z,17.43
2022-09-28T17:19:56.817Z,17.41
2022-09-28T17:24:59.652Z,17.40
2022-09-28T17:30:03.887Z,17.39
2022-09-28T17:35:23.499Z,17.39
2022-09-28T17:40:29.801Z,17.38
2022-09-28T17:45:39.143Z,17.36
2022-09-28T17:50:46.440Z,17.33
2022-09-28T17:55:49.542Z,17.34
2022-09-28T18:00:52.801Z,17.33
2022-09-28T18:06:04.518Z,17.32
2022-09-28T18:11:08.317Z,17.32
2022-09-28T18:16:11.724Z,17.31
2022-09-28T18:21:15.120Z,17.30
2022-09-28T18:26:21.146Z,17.30
2022-09-28T18:31:24.220Z,17.28
2022-09-28T18:36:36.038Z,17.26
2022-09-28T18:41:39.186Z,17.25
2022-09-28T18:46:42.756Z,17.24
2022-09-28T18:51:45.718Z,17.23
2022-09-28T18:56:50.408Z,17.22
2022-09-28T19:01:53.492Z,17.21
2022-09-28T19:06:56.416Z,17.19
2022-09-28T19:11:59.376Z,17.18
2022-09-28T19:17:02.352Z,17.18
2022-09-28T19:22:05.542Z,17.16
2022-09-28T19:27:08.471Z,17.15
2022-09-28T19:32:12.756Z,17.13
2022-09-28T19:37:15.792Z,17.10
2022-09-28T19:42:18.632Z,17.09
2022-09-28T19:47:21.803Z,17.06
2022-09-28T19:52:24.745Z,17.05
2022-09-28T19:57:32.609Z,17.02
2022-09-28T20:02:36.414Z,17.02
2022-09-28T20:07:39.958Z,16.99
2022-09-28T20:12:43.224Z,16.93
2022-09-28T20:17:46.264Z,16.88
2022-09-28T20:22:49.197Z,16.84
2022-09-28T20:27:52.139Z,16.80
2022-09-28T20:32:54.952Z,16.75
2022-09-28T20:37:59.586Z,16.71
2022-09-28T20:43:02.718Z,16.69
2022-09-28T20:48:06.594Z,16.67
2022-09-28T20:53:09.455Z,16.64
2022-09-28T20:58:12.432Z,16.60
2022-09-28T21:03:15.204Z,16.57
2022-09-28T21:08:18.155Z,16.52
2022-09-28T21:13:22.812Z,16.45
2022-09-28T21:18:25.690Z,16.38
2022-09-28T21:23:28.634Z,16.32
2022-09-28T21:28:32.356Z,16.28
2022-09-28T21:33:35.303Z,16.21
2022-09-28T21:38:38.180Z,16.18
2022-09-28T21:43:41.096Z,17.02
2022-09-28T21:48:43.992Z,19.71
2022-09-28T21:53:48.597Z,20.42
2022-09-28T21:58:51.593Z,19.14
2022-09-28T22:03:56.057Z,18.39
2022-09-28T22:08:58.988Z,17.89
2022-09-28T22:14:02.084Z,17.48
2022-09-28T22:19:05.172Z,17.16
2022-09-28T22:24:08.105Z,16.88
2022-09-28T22:29:11.000Z,16.65
2022-09-28T22:34:13.887Z,17.37
2022-09-28T22:39:16.839Z,19.85
2022-09-28T22:44:20.345Z,20.44
2022-09-28T22:49:24.564Z,19.11
2022-09-28T22:54:27.929Z,18.30
2022-09-28T22:59:30.999Z,17.77
2022-09-28T23:04:33.917Z,17.36
2022-09-28T23:09:36.745Z,17.00
2022-09-28T23:14:39.710Z,16.69
2022-09-28T23:19:42.670Z,17.42
2022-09-28T23:24:45.510Z,19.87
2022-09-28T23:29:49.074Z,20.44
2022-09-28T23:34:52.064Z,19.06
2022-09-28T23:39:54.997Z,18.21
2022-09-28T23:44:57.971Z,17.66
2022-09-28T23:50:00.767Z,17.21
2022-09-28T23:55:04.109Z,16.84
